sensor_id;sensor_type;location;lat;lon;timestamp;P1;durP1;ratioP1;P2;durP2;ratioP2
38529;SDS011;24301;54.332;48.386;2023-07-29T00:01:51;13.35;;;6.05;;
38529;SDS011;24301;54.332;48.386;2023-07-29T00:04:19;13.27;;;7.10;;
38529;SDS011;24301;54.332;48.386;2023-07-29T00:06:45;14.48;;;6.40;;
38529;SDS011;24301;54.332;48.386;2023-07-29T00:09:11;12.65;;;5.85;;
38529;SDS011;24301;54.332;48.386;2023-07-29T00:11:37;8.15;;;6.03;;
38529;SDS011;24301;54.332;48.386;2023-07-29T00:14:03;9.55;;;5.78;;
38529;SDS011;24301;54.332;48.386;2023-07-29T00:16:29;9.68;;;6.28;;
38529;SDS011;24301;54.332;48.386;2023-07-29T00:18:55;11.15;;;6.30;;
38529;SDS011;24301;54.332;48.386;2023-07-29T00:21:21;13.35;;;6.68;;
38529;SDS011;24301;54.332;48.386;2023-07-29T00:23:46;8.27;;;5.50;;
38529;SDS011;24301;54.332;48.386;2023-07-29T00:26:12;14.38;;;6.68;;
38529;SDS011;24301;54.332;48.386;2023-07-29T00:28:38;8.70;;;6.15;;
38529;SDS011;24301;54.332;48.386;2023-07-29T00:31:04;9.77;;;6.45;;
38529;SDS011;24301;54.332;48.386;2023-07-29T00:33:30;9.20;;;6.57;;
38529;SDS011;24301;54.332;48.386;2023-07-29T00:35:55;9.65;;;6.20;;
38529;SDS011;24301;54.332;48.386;2023-07-29T00:38:21;13.05;;;6.13;;
38529;SDS011;24301;54.332;48.386;2023-07-29T00:40:48;11.55;;;6.18;;
38529;SDS011;24301;54.332;48.386;2023-07-29T00:43:15;11.90;;;5.95;;
38529;SDS011;24301;54.332;48.386;2023-07-29T00:45:41;9.90;;;5.88;;
38529;SDS011;24301;54.332;48.386;2023-07-29T00:48:09;7.88;;;5.60;;
38529;SDS011;24301;54.332;48.386;2023-07-29T00:50:35;11.40;;;6.38;;
38529;SDS011;24301;54.332;48.386;2023-07-29T00:53:02;11.13;;;6.68;;
38529;SDS011;24301;54.332;48.386;2023-07-29T00:55:28;13.60;;;7.40;;
38529;SDS011;24301;54.332;48.386;2023-07-29T00:57:54;13.90;;;6.93;;
38529;SDS011;24301;54.332;48.386;2023-07-29T01:00:20;12.07;;;6.95;;
38529;SDS011;24301;54.332;48.386;2023-07-29T01:02:47;10.80;;;6.25;;
38529;SDS011;24301;54.332;48.386;2023-07-29T01:05:13;11.10;;;6.82;;
38529;SDS011;24301;54.332;48.386;2023-07-29T01:18:32;13.13;;;6.97;;
38529;SDS011;24301;54.332;48.386;2023-07-29T01:21:07;16.92;;;7.28;;
38529;SDS011;24301;54.332;48.386;2023-07-29T01:23:34;14.93;;;7.50;;
38529;SDS011;24301;54.332;48.386;2023-07-29T01:26:01;14.05;;;7.25;;
38529;SDS011;24301;54.332;48.386;2023-07-29T01:28:28;14.02;;;7.25;;
38529;SDS011;24301;54.332;48.386;2023-07-29T01:31:10;10.82;;;7.72;;
38529;SDS011;24301;54.332;48.386;2023-07-29T01:33:42;11.77;;;7.32;;
38529;SDS011;24301;54.332;48.386;2023-07-29T01:36:15;12.80;;;8.02;;
38529;SDS011;24301;54.332;48.386;2023-07-29T01:38:48;12.27;;;7.65;;
38529;SDS011;24301;54.332;48.386;2023-07-29T01:41:15;13.00;;;7.70;;
38529;SDS011;24301;54.332;48.386;2023-07-29T01:43:42;11.43;;;8.27;;
38529;SDS011;24301;54.332;48.386;2023-07-29T01:46:15;18.00;;;7.88;;
38529;SDS011;24301;54.332;48.386;2023-07-29T01:48:41;14.20;;;7.85;;
38529;SDS011;24301;54.332;48.386;2023-07-29T01:51:07;10.50;;;7.35;;
38529;SDS011;24301;54.332;48.386;2023-07-29T01:53:34;12.75;;;6.88;;
38529;SDS011;24301;54.332;48.386;2023-07-29T01:56:00;14.57;;;7.18;;
38529;SDS011;24301;54.332;48.386;2023-07-29T01:58:27;11.52;;;7.20;;
38529;SDS011;24301;54.332;48.386;2023-07-29T02:00:53;11.82;;;7.05;;
38529;SDS011;24301;54.332;48.386;2023-07-29T02:03:18;14.13;;;8.13;;
38529;SDS011;24301;54.332;48.386;2023-07-29T02:05:44;13.30;;;7.75;;
38529;SDS011;24301;54.332;48.386;2023-07-29T02:08:10;12.38;;;8.40;;
38529;SDS011;24301;54.332;48.386;2023-07-29T02:10:37;10.40;;;8.88;;
38529;SDS011;24301;54.332;48.386;2023-07-29T02:13:03;13.07;;;8.38;;
38529;SDS011;24301;54.332;48.386;2023-07-29T02:15:29;14.05;;;8.07;;
38529;SDS011;24301;54.332;48.386;2023-07-29T02:17:55;15.43;;;8.02;;
38529;SDS011;24301;54.332;48.386;2023-07-29T02:20:21;9.55;;;7.60;;
38529;SDS011;24301;54.332;48.386;2023-07-29T02:22:50;16.65;;;8.45;;
38529;SDS011;24301;54.332;48.386;2023-07-29T02:25:16;12.48;;;7.75;;
38529;SDS011;24301;54.332;48.386;2023-07-29T02:27:42;13.00;;;7.95;;
38529;SDS011;24301;54.332;48.386;2023-07-29T02:30:08;13.35;;;8.02;;
38529;SDS011;24301;54.332;48.386;2023-07-29T02:32:35;12.88;;;7.75;;
38529;SDS011;24301;54.332;48.386;2023-07-29T02:35:02;13.43;;;8.75;;
38529;SDS011;24301;54.332;48.386;2023-07-29T02:37:28;13.88;;;7.78;;
38529;SDS011;24301;54.332;48.386;2023-07-29T02:39:54;14.45;;;8.85;;
38529;SDS011;24301;54.332;48.386;2023-07-29T02:42:22;16.08;;;8.88;;
38529;SDS011;24301;54.332;48.386;2023-07-29T02:44:48;17.20;;;8.43;;
38529;SDS011;24301;54.332;48.386;2023-07-29T02:47:14;16.70;;;8.40;;
38529;SDS011;24301;54.332;48.386;2023-07-29T02:49:40;12.68;;;8.45;;
38529;SDS011;24301;54.332;48.386;2023-07-29T02:52:06;11.50;;;7.93;;
38529;SDS011;24301;54.332;48.386;2023-07-29T02:54:32;11.65;;;8.00;;
38529;SDS011;24301;54.332;48.386;2023-07-29T02:56:58;16.05;;;8.98;;
38529;SDS011;24301;54.332;48.386;2023-07-29T02:59:24;15.43;;;8.85;;
38529;SDS011;24301;54.332;48.386;2023-07-29T03:01:50;13.77;;;8.07;;
38529;SDS011;24301;54.332;48.386;2023-07-29T03:10:12;14.55;;;7.63;;
38529;SDS011;24301;54.332;48.386;2023-07-29T03:13:26;12.23;;;8.00;;
38529;SDS011;24301;54.332;48.386;2023-07-29T03:16:14;12.15;;;7.32;;
38529;SDS011;24301;54.332;48.386;2023-07-29T03:19:10;14.93;;;8.35;;
38529;SDS011;24301;54.332;48.386;2023-07-29T03:21:36;12.57;;;8.45;;
38529;SDS011;24301;54.332;48.386;2023-07-29T03:24:02;14.35;;;7.90;;
38529;SDS011;24301;54.332;48.386;2023-07-29T03:26:32;13.90;;;8.20;;
38529;SDS011;24301;54.332;48.386;2023-07-29T03:29:10;14.52;;;7.72;;
38529;SDS011;24301;54.332;48.386;2023-07-29T03:37:05;11.80;;;7.95;;
38529;SDS011;24301;54.332;48.386;2023-07-29T03:39:31;16.50;;;7.93;;
38529;SDS011;24301;54.332;48.386;2023-07-29T03:41:58;10.65;;;7.63;;
38529;SDS011;24301;54.332;48.386;2023-07-29T03:44:23;10.27;;;7.65;;
38529;SDS011;24301;54.332;48.386;2023-07-29T03:46:49;12.60;;;7.85;;
38529;SDS011;24301;54.332;48.386;2023-07-29T03:49:15;10.02;;;7.07;;
38529;SDS011;24301;54.332;48.386;2023-07-29T03:51:41;12.82;;;7.43;;
38529;SDS011;24301;54.332;48.386;2023-07-29T03:54:07;10.60;;;6.30;;
38529;SDS011;24301;54.332;48.386;2023-07-29T03:56:33;9.18;;;6.68;;
38529;SDS011;24301;54.332;48.386;2023-07-29T03:59:04;12.35;;;7.32;;
38529;SDS011;24301;54.332;48.386;2023-07-29T04:01:34;9.70;;;7.13;;
38529;SDS011;24301;54.332;48.386;2023-07-29T04:04:00;14.70;;;8.25;;
38529;SDS011;24301;54.332;48.386;2023-07-29T04:06:26;13.18;;;6.88;;
38529;SDS011;24301;54.332;48.386;2023-07-29T04:08:52;12.30;;;7.60;;
38529;SDS011;24301;54.332;48.386;2023-07-29T04:11:17;10.50;;;6.97;;
38529;SDS011;24301;54.332;48.386;2023-07-29T04:13:44;10.25;;;7.43;;
38529;SDS011;24301;54.332;48.386;2023-07-29T04:16:12;10.70;;;6.97;;
38529;SDS011;24301;54.332;48.386;2023-07-29T04:18:38;11.68;;;7.13;;
38529;SDS011;24301;54.332;48.386;2023-07-29T04:21:04;11.23;;;7.50;;
38529;SDS011;24301;54.332;48.386;2023-07-29T04:23:30;11.63;;;6.63;;
38529;SDS011;24301;54.332;48.386;2023-07-29T04:25:56;10.00;;;6.22;;
38529;SDS011;24301;54.332;48.386;2023-07-29T04:28:30;13.40;;;6.68;;
38529;SDS011;24301;54.332;48.386;2023-07-29T04:31:16;11.60;;;7.05;;
38529;SDS011;24301;54.332;48.386;2023-07-29T04:36:34;10.35;;;6.88;;
38529;SDS011;24301;54.332;48.386;2023-07-29T04:39:00;12.48;;;6.93;;
38529;SDS011;24301;54.332;48.386;2023-07-29T04:41:26;12.27;;;6.38;;
38529;SDS011;24301;54.332;48.386;2023-07-29T04:43:52;11.20;;;7.20;;
38529;SDS011;24301;54.332;48.386;2023-07-29T04:46:18;9.23;;;6.68;;
38529;SDS011;24301;54.332;48.386;2023-07-29T04:48:47;9.63;;;6.68;;
38529;SDS011;24301;54.332;48.386;2023-07-29T04:51:12;10.25;;;6.47;;
38529;SDS011;24301;54.332;48.386;2023-07-29T04:53:39;8.98;;;6.35;;
38529;SDS011;24301;54.332;48.386;2023-07-29T04:56:05;8.60;;;6.28;;
38529;SDS011;24301;54.332;48.386;2023-07-29T04:58:31;11.40;;;6.85;;
38529;SDS011;24301;54.332;48.386;2023-07-29T05:01:00;10.85;;;6.80;;
38529;SDS011;24301;54.332;48.386;2023-07-29T05:03:26;9.27;;;6.10;;
38529;SDS011;24301;54.332;48.386;2023-07-29T05:05:52;10.48;;;6.03;;
38529;SDS011;24301;54.332;48.386;2023-07-29T05:08:20;9.05;;;5.70;;
38529;SDS011;24301;54.332;48.386;2023-07-29T05:10:49;9.95;;;6.53;;
38529;SDS011;24301;54.332;48.386;2023-07-29T05:13:16;9.13;;;5.97;;
38529;SDS011;24301;54.332;48.386;2023-07-29T05:15:42;9.23;;;6.25;;
38529;SDS011;24301;54.332;48.386;2023-07-29T05:18:08;9.07;;;6.20;;
38529;SDS011;24301;54.332;48.386;2023-07-29T05:20:34;8.27;;;6.05;;
38529;SDS011;24301;54.332;48.386;2023-07-29T05:23:03;10.13;;;5.90;;
38529;SDS011;24301;54.332;48.386;2023-07-29T05:25:29;8.95;;;6.80;;
38529;SDS011;24301;54.332;48.386;2023-07-29T05:27:55;8.85;;;6.28;;
38529;SDS011;24301;54.332;48.386;2023-07-29T05:30:20;10.85;;;6.70;;
38529;SDS011;24301;54.332;48.386;2023-07-29T05:32:46;8.98;;;5.75;;
38529;SDS011;24301;54.332;48.386;2023-07-29T05:35:12;12.90;;;6.13;;
38529;SDS011;24301;54.332;48.386;2023-07-29T05:37:38;11.32;;;6.43;;
38529;SDS011;24301;54.332;48.386;2023-07-29T05:40:07;10.75;;;6.38;;
38529;SDS011;24301;54.332;48.386;2023-07-29T05:42:34;11.10;;;6.63;;
38529;SDS011;24301;54.332;48.386;2023-07-29T05:45:00;10.95;;;6.57;;
38529;SDS011;24301;54.332;48.386;2023-07-29T05:47:28;8.18;;;6.10;;
38529;SDS011;24301;54.332;48.386;2023-07-29T05:49:54;8.48;;;6.22;;
38529;SDS011;24301;54.332;48.386;2023-07-29T05:52:20;10.48;;;5.90;;
38529;SDS011;24301;54.332;48.386;2023-07-29T05:54:45;10.00;;;6.85;;
38529;SDS011;24301;54.332;48.386;2023-07-29T05:57:11;10.63;;;6.25;;
38529;SDS011;24301;54.332;48.386;2023-07-29T05:59:38;10.30;;;5.07;;
38529;SDS011;24301;54.332;48.386;2023-07-29T06:02:04;9.95;;;6.10;;
38529;SDS011;24301;54.332;48.386;2023-07-29T06:04:30;6.90;;;5.40;;
38529;SDS011;24301;54.332;48.386;2023-07-29T06:06:56;12.13;;;6.07;;
38529;SDS011;24301;54.332;48.386;2023-07-29T06:09:22;8.63;;;5.35;;
38529;SDS011;24301;54.332;48.386;2023-07-29T06:11:48;9.48;;;5.85;;
38529;SDS011;24301;54.332;48.386;2023-07-29T06:14:14;8.43;;;5.40;;
38529;SDS011;24301;54.332;48.386;2023-07-29T06:16:40;7.97;;;5.68;;
38529;SDS011;24301;54.332;48.386;2023-07-29T06:19:06;7.95;;;5.20;;
38529;SDS011;24301;54.332;48.386;2023-07-29T06:21:34;9.40;;;5.57;;
38529;SDS011;24301;54.332;48.386;2023-07-29T06:24:00;7.75;;;5.85;;
38529;SDS011;24301;54.332;48.386;2023-07-29T06:26:27;8.32;;;5.60;;
38529;SDS011;24301;54.332;48.386;2023-07-29T06:28:53;10.60;;;6.05;;
38529;SDS011;24301;54.332;48.386;2023-07-29T06:31:19;8.73;;;4.97;;
38529;SDS011;24301;54.332;48.386;2023-07-29T06:33:45;9.90;;;6.55;;
38529;SDS011;24301;54.332;48.386;2023-07-29T06:36:11;10.10;;;5.68;;
38529;SDS011;24301;54.332;48.386;2023-07-29T06:38:37;10.93;;;6.18;;
38529;SDS011;24301;54.332;48.386;2023-07-29T06:41:06;8.55;;;6.43;;
38529;SDS011;24301;54.332;48.386;2023-07-29T06:43:32;12.13;;;5.72;;
38529;SDS011;24301;54.332;48.386;2023-07-29T06:45:59;8.07;;;6.65;;
38529;SDS011;24301;54.332;48.386;2023-07-29T06:48:25;11.90;;;5.68;;
38529;SDS011;24301;54.332;48.386;2023-07-29T06:50:51;9.55;;;5.25;;
38529;SDS011;24301;54.332;48.386;2023-07-29T06:53:17;6.15;;;5.10;;
38529;SDS011;24301;54.332;48.386;2023-07-29T06:55:43;8.68;;;5.30;;
38529;SDS011;24301;54.332;48.386;2023-07-29T06:58:10;10.55;;;5.57;;
38529;SDS011;24301;54.332;48.386;2023-07-29T07:00:36;8.57;;;5.50;;
38529;SDS011;24301;54.332;48.386;2023-07-29T07:03:01;10.38;;;5.20;;
38529;SDS011;24301;54.332;48.386;2023-07-29T07:05:27;9.52;;;5.80;;
38529;SDS011;24301;54.332;48.386;2023-07-29T07:07:53;6.82;;;4.75;;
38529;SDS011;24301;54.332;48.386;2023-07-29T07:10:19;8.23;;;5.50;;
38529;SDS011;24301;54.332;48.386;2023-07-29T07:12:45;6.88;;;5.50;;
38529;SDS011;24301;54.332;48.386;2023-07-29T07:15:10;6.57;;;5.22;;
38529;SDS011;24301;54.332;48.386;2023-07-29T07:17:36;7.35;;;4.50;;
38529;SDS011;24301;54.332;48.386;2023-07-29T07:20:02;6.97;;;4.95;;
38529;SDS011;24301;54.332;48.386;2023-07-29T07:22:29;9.13;;;5.25;;
38529;SDS011;24301;54.332;48.386;2023-07-29T07:24:54;7.55;;;5.47;;
38529;SDS011;24301;54.332;48.386;2023-07-29T07:27:20;9.15;;;5.50;;
38529;SDS011;24301;54.332;48.386;2023-07-29T07:29:46;7.25;;;5.90;;
38529;SDS011;24301;54.332;48.386;2023-07-29T07:32:12;8.68;;;4.90;;
38529;SDS011;24301;54.332;48.386;2023-07-29T07:34:38;9.27;;;5.78;;
38529;SDS011;24301;54.332;48.386;2023-07-29T07:37:04;7.93;;;4.80;;
38529;SDS011;24301;54.332;48.386;2023-07-29T07:39:30;6.28;;;5.38;;
38529;SDS011;24301;54.332;48.386;2023-07-29T07:41:57;7.13;;;5.03;;
38529;SDS011;24301;54.332;48.386;2023-07-29T07:44:22;7.32;;;4.65;;
38529;SDS011;24301;54.332;48.386;2023-07-29T07:46:51;8.68;;;5.68;;
38529;SDS011;24301;54.332;48.386;2023-07-29T07:49:18;8.73;;;5.22;;
38529;SDS011;24301;54.332;48.386;2023-07-29T07:51:44;8.15;;;5.82;;
38529;SDS011;24301;54.332;48.386;2023-07-29T07:54:10;5.22;;;4.60;;
38529;SDS011;24301;54.332;48.386;2023-07-29T07:56:36;6.30;;;4.80;;
38529;SDS011;24301;54.332;48.386;2023-07-29T07:59:02;9.45;;;4.30;;
38529;SDS011;24301;54.332;48.386;2023-07-29T08:01:27;6.95;;;4.20;;
38529;SDS011;24301;54.332;48.386;2023-07-29T08:03:59;8.32;;;4.75;;
38529;SDS011;24301;54.332;48.386;2023-07-29T08:06:27;6.65;;;4.82;;
38529;SDS011;24301;54.332;48.386;2023-07-29T08:08:53;9.98;;;4.53;;
38529;SDS011;24301;54.332;48.386;2023-07-29T08:11:20;7.50;;;5.20;;
38529;SDS011;24301;54.332;48.386;2023-07-29T08:13:46;7.28;;;4.25;;
38529;SDS011;24301;54.332;48.386;2023-07-29T08:16:11;6.32;;;5.05;;
38529;SDS011;24301;54.332;48.386;2023-07-29T08:18:37;7.32;;;4.32;;
38529;SDS011;24301;54.332;48.386;2023-07-29T08:21:03;11.27;;;5.13;;
38529;SDS011;24301;54.332;48.386;2023-07-29T08:23:55;7.10;;;4.78;;
38529;SDS011;24301;54.332;48.386;2023-07-29T08:26:21;6.38;;;4.93;;
38529;SDS011;24301;54.332;48.386;2023-07-29T08:28:47;7.53;;;4.35;;
38529;SDS011;24301;54.332;48.386;2023-07-29T08:31:13;11.63;;;5.53;;
38529;SDS011;24301;54.332;48.386;2023-07-29T08:33:43;8.13;;;4.38;;
38529;SDS011;24301;54.332;48.386;2023-07-29T08:36:09;6.75;;;4.65;;
38529;SDS011;24301;54.332;48.386;2023-07-29T08:38:34;7.80;;;4.63;;
38529;SDS011;24301;54.332;48.386;2023-07-29T08:43:50;9.10;;;4.03;;
38529;SDS011;24301;54.332;48.386;2023-07-29T08:46:21;8.65;;;4.07;;
38529;SDS011;24301;54.332;48.386;2023-07-29T08:48:47;6.07;;;4.07;;
38529;SDS011;24301;54.332;48.386;2023-07-29T08:51:15;6.78;;;4.75;;
38529;SDS011;24301;54.332;48.386;2023-07-29T08:53:42;8.65;;;4.35;;
38529;SDS011;24301;54.332;48.386;2023-07-29T08:56:08;5.38;;;4.53;;
38529;SDS011;24301;54.332;48.386;2023-07-29T08:58:34;7.75;;;4.18;;
38529;SDS011;24301;54.332;48.386;2023-07-29T09:01:04;9.50;;;4.50;;
38529;SDS011;24301;54.332;48.386;2023-07-29T09:03:31;6.30;;;4.35;;
38529;SDS011;24301;54.332;48.386;2023-07-29T09:05:57;8.02;;;4.40;;
38529;SDS011;24301;54.332;48.386;2023-07-29T09:08:24;7.13;;;4.40;;
38529;SDS011;24301;54.332;48.386;2023-07-29T09:10:54;5.45;;;4.65;;
38529;SDS011;24301;54.332;48.386;2023-07-29T09:13:23;8.27;;;4.90;;
38529;SDS011;24301;54.332;48.386;2023-07-29T09:15:53;7.80;;;4.95;;
38529;SDS011;24301;54.332;48.386;2023-07-29T09:18:21;9.20;;;4.53;;
38529;SDS011;24301;54.332;48.386;2023-07-29T09:20:48;10.05;;;4.55;;
38529;SDS011;24301;54.332;48.386;2023-07-29T09:23:15;6.82;;;4.45;;
38529;SDS011;24301;54.332;48.386;2023-07-29T09:25:41;6.47;;;4.05;;
38529;SDS011;24301;54.332;48.386;2023-07-29T09:28:14;7.60;;;5.20;;
38529;SDS011;24301;54.332;48.386;2023-07-29T09:30:41;11.05;;;4.93;;
38529;SDS011;24301;54.332;48.386;2023-07-29T09:33:10;5.70;;;3.75;;
38529;SDS011;24301;54.332;48.386;2023-07-29T09:35:36;6.63;;;3.63;;
38529;SDS011;24301;54.332;48.386;2023-07-29T09:38:06;8.18;;;3.92;;
38529;SDS011;24301;54.332;48.386;2023-07-29T09:40:36;6.95;;;4.18;;
38529;SDS011;24301;54.332;48.386;2023-07-29T09:43:03;10.50;;;4.32;;
38529;SDS011;24301;54.332;48.386;2023-07-29T09:45:29;7.50;;;3.70;;
38529;SDS011;24301;54.332;48.386;2023-07-29T09:47:58;8.32;;;3.72;;
38529;SDS011;24301;54.332;48.386;2023-07-29T09:50:24;7.40;;;3.97;;
38529;SDS011;24301;54.332;48.386;2023-07-29T09:52:51;10.48;;;3.95;;
38529;SDS011;24301;54.332;48.386;2023-07-29T09:55:18;7.63;;;3.35;;
38529;SDS011;24301;54.332;48.386;2023-07-29T09:57:46;9.98;;;3.65;;
38529;SDS011;24301;54.332;48.386;2023-07-29T10:00:12;13.57;;;4.45;;
38529;SDS011;24301;54.332;48.386;2023-07-29T10:02:39;4.90;;;3.25;;
38529;SDS011;24301;54.332;48.386;2023-07-29T10:12:24;10.10;;;3.35;;
38529;SDS011;24301;54.332;48.386;2023-07-29T10:17:54;5.68;;;3.72;;
38529;SDS011;24301;54.332;48.386;2023-07-29T10:20:42;4.28;;;2.90;;
38529;SDS011;24301;54.332;48.386;2023-07-29T10:23:09;7.55;;;3.67;;
38529;SDS011;24301;54.332;48.386;2023-07-29T10:26:30;6.45;;;3.65;;
38529;SDS011;24301;54.332;48.386;2023-07-29T10:32:27;8.02;;;4.78;;
38529;SDS011;24301;54.332;48.386;2023-07-29T10:38:07;6.13;;;3.53;;
38529;SDS011;24301;54.332;48.386;2023-07-29T10:43:35;7.70;;;3.83;;
38529;SDS011;24301;54.332;48.386;2023-07-29T10:46:16;6.07;;;3.40;;
38529;SDS011;24301;54.332;48.386;2023-07-29T10:48:51;8.13;;;3.70;;
38529;SDS011;24301;54.332;48.386;2023-07-29T10:54:13;8.63;;;4.03;;
38529;SDS011;24301;54.332;48.386;2023-07-29T10:56:42;6.05;;;4.03;;
38529;SDS011;24301;54.332;48.386;2023-07-29T11:00:07;7.15;;;4.30;;
38529;SDS011;24301;54.332;48.386;2023-07-29T11:08:43;7.43;;;3.42;;
38529;SDS011;24301;54.332;48.386;2023-07-29T11:11:12;11.75;;;3.72;;
38529;SDS011;24301;54.332;48.386;2023-07-29T11:16:36;6.30;;;4.47;;
38529;SDS011;24301;54.332;48.386;2023-07-29T11:21:57;11.85;;;4.55;;
38529;SDS011;24301;54.332;48.386;2023-07-29T11:24:24;5.38;;;3.70;;
38529;SDS011;24301;54.332;48.386;2023-07-29T11:27:13;7.15;;;4.10;;
38529;SDS011;24301;54.332;48.386;2023-07-29T11:29:42;5.85;;;3.65;;
38529;SDS011;24301;54.332;48.386;2023-07-29T11:32:17;4.95;;;3.72;;
38529;SDS011;24301;54.332;48.386;2023-07-29T11:46:53;8.55;;;4.03;;
38529;SDS011;24301;54.332;48.386;2023-07-29T11:52:29;10.13;;;3.90;;
38529;SDS011;24301;54.332;48.386;2023-07-29T11:55:41;7.93;;;3.90;;
38529;SDS011;24301;54.332;48.386;2023-07-29T12:07:33;7.72;;;4.13;;
38529;SDS011;24301;54.332;48.386;2023-07-29T12:13:16;5.80;;;3.95;;
38529;SDS011;24301;54.332;48.386;2023-07-29T12:16:00;7.75;;;3.67;;
38529;SDS011;24301;54.332;48.386;2023-07-29T12:19:16;6.97;;;4.23;;
38529;SDS011;24301;54.332;48.386;2023-07-29T12:21:44;7.03;;;3.97;;
38529;SDS011;24301;54.332;48.386;2023-07-29T12:24:28;5.82;;;3.20;;
38529;SDS011;24301;54.332;48.386;2023-07-29T12:27:34;7.97;;;3.47;;
38529;SDS011;24301;54.332;48.386;2023-07-29T12:30:01;8.45;;;3.85;;
38529;SDS011;24301;54.332;48.386;2023-07-29T12:32:45;8.30;;;4.47;;
38529;SDS011;24301;54.332;48.386;2023-07-29T12:35:34;8.75;;;4.47;;
38529;SDS011;24301;54.332;48.386;2023-07-29T12:38:37;7.68;;;4.22;;
38529;SDS011;24301;54.332;48.386;2023-07-29T12:41:06;9.00;;;3.90;;
38529;SDS011;24301;54.332;48.386;2023-07-29T12:49:35;9.90;;;4.72;;
38529;SDS011;24301;54.332;48.386;2023-07-29T12:55:33;6.72;;;4.15;;
38529;SDS011;24301;54.332;48.386;2023-07-29T12:58:23;7.47;;;4.18;;
38529;SDS011;24301;54.332;48.386;2023-07-29T13:01:24;9.43;;;4.57;;
38529;SDS011;24301;54.332;48.386;2023-07-29T13:04:22;8.65;;;3.58;;
38529;SDS011;24301;54.332;48.386;2023-07-29T13:07:06;104.40;;;11.38;;
38529;SDS011;24301;54.332;48.386;2023-07-29T13:15:24;80.97;;;8.80;;
38529;SDS011;24301;54.332;48.386;2023-07-29T13:21:43;42.45;;;6.35;;
38529;SDS011;24301;54.332;48.386;2023-07-29T13:24:15;11.63;;;3.88;;
38529;SDS011;24301;54.332;48.386;2023-07-29T13:26:45;11.85;;;4.53;;
38529;SDS011;24301;54.332;48.386;2023-07-29T13:29:10;11.98;;;3.67;;
38529;SDS011;24301;54.332;48.386;2023-07-29T13:31:37;6.93;;;3.30;;
38529;SDS011;24301;54.332;48.386;2023-07-29T13:34:02;6.72;;;3.15;;
38529;SDS011;24301;54.332;48.386;2023-07-29T13:36:28;4.72;;;2.50;;
38529;SDS011;24301;54.332;48.386;2023-07-29T13:38:54;4.55;;;2.65;;
38529;SDS011;24301;54.332;48.386;2023-07-29T13:41:20;6.10;;;2.45;;
38529;SDS011;24301;54.332;48.386;2023-07-29T13:43:45;5.47;;;2.20;;
38529;SDS011;24301;54.332;48.386;2023-07-29T13:46:11;3.47;;;1.85;;
38529;SDS011;24301;54.332;48.386;2023-07-29T13:48:37;3.03;;;1.95;;
38529;SDS011;24301;54.332;48.386;2023-07-29T13:51:03;5.78;;;2.58;;
38529;SDS011;24301;54.332;48.386;2023-07-29T13:53:29;3.60;;;1.73;;
38529;SDS011;24301;54.332;48.386;2023-07-29T13:55:54;4.03;;;1.67;;
38529;SDS011;24301;54.332;48.386;2023-07-29T13:58:23;2.40;;;1.25;;
38529;SDS011;24301;54.332;48.386;2023-07-29T14:00:48;2.22;;;1.10;;
38529;SDS011;24301;54.332;48.386;2023-07-29T14:03:14;1.92;;;1.23;;
38529;SDS011;24301;54.332;48.386;2023-07-29T14:05:40;2.85;;;1.38;;
38529;SDS011;24301;54.332;48.386;2023-07-29T14:08:06;2.22;;;1.25;;
38529;SDS011;24301;54.332;48.386;2023-07-29T14:10:34;1.23;;;1.00;;
38529;SDS011;24301;54.332;48.386;2023-07-29T14:13:00;3.42;;;2.40;;
38529;SDS011;24301;54.332;48.386;2023-07-29T14:15:25;4.20;;;2.50;;
38529;SDS011;24301;54.332;48.386;2023-07-29T14:17:51;3.58;;;2.10;;
38529;SDS011;24301;54.332;48.386;2023-07-29T14:20:17;3.35;;;1.90;;
38529;SDS011;24301;54.332;48.386;2023-07-29T14:22:43;2.63;;;1.88;;
38529;SDS011;24301;54.332;48.386;2023-07-29T14:25:24;1.65;;;1.10;;
38529;SDS011;24301;54.332;48.386;2023-07-29T14:28:06;1.75;;;1.27;;
38529;SDS011;24301;54.332;48.386;2023-07-29T14:30:37;3.33;;;1.35;;
38529;SDS011;24301;54.332;48.386;2023-07-29T14:33:03;2.53;;;1.20;;
38529;SDS011;24301;54.332;48.386;2023-07-29T14:35:30;1.65;;;1.20;;
38529;SDS011;24301;54.332;48.386;2023-07-29T14:37:56;1.15;;;0.90;;
38529;SDS011;24301;54.332;48.386;2023-07-29T14:40:22;1.63;;;1.02;;
38529;SDS011;24301;54.332;48.386;2023-07-29T14:42:48;1.50;;;1.00;;
38529;SDS011;24301;54.332;48.386;2023-07-29T14:45:13;2.53;;;1.90;;
38529;SDS011;24301;54.332;48.386;2023-07-29T14:47:39;4.40;;;1.80;;
38529;SDS011;24301;54.332;48.386;2023-07-29T14:50:05;1.65;;;1.08;;
38529;SDS011;24301;54.332;48.386;2023-07-29T14:52:31;6.00;;;1.92;;
38529;SDS011;24301;54.332;48.386;2023-07-29T14:54:57;3.45;;;1.63;;
38529;SDS011;24301;54.332;48.386;2023-07-29T14:57:23;3.78;;;1.77;;
38529;SDS011;24301;54.332;48.386;2023-07-29T14:59:48;3.95;;;2.05;;
38529;SDS011;24301;54.332;48.386;2023-07-29T15:02:14;5.68;;;2.40;;
38529;SDS011;24301;54.332;48.386;2023-07-29T15:04:40;3.55;;;2.25;;
38529;SDS011;24301;54.332;48.386;2023-07-29T15:07:06;6.78;;;2.88;;
38529;SDS011;24301;54.332;48.386;2023-07-29T15:09:32;3.33;;;2.30;;
38529;SDS011;24301;54.332;48.386;2023-07-29T15:11:58;8.60;;;2.35;;
38529;SDS011;24301;54.332;48.386;2023-07-29T15:14:24;4.53;;;2.20;;
38529;SDS011;24301;54.332;48.386;2023-07-29T15:16:50;4.85;;;2.55;;
38529;SDS011;24301;54.332;48.386;2023-07-29T15:19:16;5.55;;;2.13;;
38529;SDS011;24301;54.332;48.386;2023-07-29T15:21:42;3.85;;;2.08;;
38529;SDS011;24301;54.332;48.386;2023-07-29T15:24:08;6.95;;;2.40;;
38529;SDS011;24301;54.332;48.386;2023-07-29T15:30:05;5.88;;;3.17;;
38529;SDS011;24301;54.332;48.386;2023-07-29T15:32:31;4.55;;;3.28;;
38529;SDS011;24301;54.332;48.386;2023-07-29T15:34:57;4.75;;;2.42;;
38529;SDS011;24301;54.332;48.386;2023-07-29T15:37:25;9.50;;;3.03;;
38529;SDS011;24301;54.332;48.386;2023-07-29T15:39:51;5.18;;;2.97;;
38529;SDS011;24301;54.332;48.386;2023-07-29T15:42:17;6.35;;;3.13;;
38529;SDS011;24301;54.332;48.386;2023-07-29T15:44:43;10.23;;;3.15;;
38529;SDS011;24301;54.332;48.386;2023-07-29T15:47:09;6.03;;;3.10;;
38529;SDS011;24301;54.332;48.386;2023-07-29T15:49:38;5.55;;;2.65;;
38529;SDS011;24301;54.332;48.386;2023-07-29T15:52:04;6.22;;;2.88;;
38529;SDS011;24301;54.332;48.386;2023-07-29T15:54:30;8.63;;;3.13;;
38529;SDS011;24301;54.332;48.386;2023-07-29T15:56:55;5.60;;;3.08;;
38529;SDS011;24301;54.332;48.386;2023-07-29T15:59:23;4.60;;;3.13;;
38529;SDS011;24301;54.332;48.386;2023-07-29T16:01:51;5.63;;;3.20;;
38529;SDS011;24301;54.332;48.386;2023-07-29T16:04:17;5.00;;;2.38;;
38529;SDS011;24301;54.332;48.386;2023-07-29T16:06:42;8.80;;;2.97;;
38529;SDS011;24301;54.332;48.386;2023-07-29T16:09:08;5.43;;;3.33;;
38529;SDS011;24301;54.332;48.386;2023-07-29T16:11:35;4.50;;;2.58;;
38529;SDS011;24301;54.332;48.386;2023-07-29T16:14:01;5.38;;;2.67;;
38529;SDS011;24301;54.332;48.386;2023-07-29T16:16:27;5.10;;;2.85;;
38529;SDS011;24301;54.332;48.386;2023-07-29T16:19:06;8.52;;;2.78;;
38529;SDS011;24301;54.332;48.386;2023-07-29T16:22:37;4.65;;;2.80;;
38529;SDS011;24301;54.332;48.386;2023-07-29T16:29:08;9.13;;;2.83;;
38529;SDS011;24301;54.332;48.386;2023-07-29T16:31:42;4.95;;;2.20;;
38529;SDS011;24301;54.332;48.386;2023-07-29T16:34:09;4.43;;;2.38;;
38529;SDS011;24301;54.332;48.386;2023-07-29T16:36:34;5.30;;;2.58;;